Time;durP1;ratioP1;P1;durP2;ratioP2;P2;SDS_P1;SDS_P2;PMS_P1;PMS_P2;Temp;Humidity;BMP_temperature;BMP_pressure;BME280_temperature;BME280_humidity;BME280_pressure;Samples;Min_cycle;Max_cycle;Signal;HPM_P1;HPM_P2
2022/06/21 00:01:01;;;;;;;4.80;1.10;;;;;;;13.25;88.36;98959.63;5135849;27;20097;-79
2022/06/21 00:03:29;;;;;;;1.73;1.10;;;;;;;13.37;87.76;98970.78;5135356;27;20043;-79
2022/06/21 00:05:56;;;;;;;1.83;0.88;;;;;;;13.29;87.12;98949.94;5135880;27;20367;-79
2022/06/21 00:08:25;;;;;;;1.20;1.00;;;;;;;13.24;87.86;98966.94;5134746;27;20043;-79
2022/06/21 00:10:53;;;;;;;1.40;0.90;;;;;;;13.00;89.14;98945.69;5134577;27;20051;-79
2022/06/21 00:13:22;;;;;;;1.05;0.88;;;;;;;13.04;88.83;98971.53;5134181;27;20047;-79
2022/06/21 00:15:51;;;;;;;1.38;0.70;;;;;;;13.03;88.36;98964.38;5133784;27;20509;-78
2022/06/21 00:18:19;;;;;;;1.88;0.98;;;;;;;13.02;87.41;98974.47;5134134;27;20055;-79
2022/06/21 00:20:46;;;;;;;2.83;0.82;;;;;;;12.96;87.37;98961.63;5134310;27;20400;-79
2022/06/21 00:23:14;;;;;;;1.02;0.90;;;;;;;12.93;88.01;98956.56;5133853;27;20104;-79
2022/06/21 00:25:42;;;;;;;1.85;0.93;;;;;;;13.02;86.51;98960.81;5133708;27;20055;-79
2022/06/21 00:28:08;;;;;;;1.45;0.75;;;;;;;13.12;83.23;98952.22;5133853;27;20569;-79
2022/06/21 00:30:39;;;;;;;1.23;1.00;;;;;;;13.03;84.48;98942.56;5134020;27;20055;-79
2022/06/21 00:33:10;;;;;;;0.93;0.90;;;;;;;12.84;87.15;98939.56;5133690;27;20119;-79
2022/06/21 00:35:37;;;;;;;4.13;1.33;;;;;;;12.81;89.68;98940.00;5134132;27;20073;-79
2022/06/21 00:38:04;;;;;;;1.25;1.05;;;;;;;12.78;89.34;98943.13;5133975;27;20046;-79
2022/06/21 00:40:33;;;;;;;1.63;0.95;;;;;;;12.70;88.05;98941.41;5134084;27;20399;-79
2022/06/21 00:43:03;;;;;;;2.05;1.00;;;;;;;12.75;84.77;98952.56;5133331;27;20051;-79
2022/06/21 00:45:33;;;;;;;1.23;1.00;;;;;;;12.81;85.12;98960.94;5133943;27;20051;-78
2022/06/21 00:48:10;;;;;;;1.10;1.00;;;;;;;12.93;85.78;98956.56;5133623;27;20043;-78
2022/06/21 00:50:41;;;;;;;3.13;1.20;;;;;;;12.87;84.81;98954.66;5133772;27;20050;-79
2022/06/21 00:53:14;;;;;;;1.02;0.95;;;;;;;12.87;84.67;98958.25;5133250;27;20047;-79
2022/06/21 00:55:45;;;;;;;3.75;1.23;;;;;;;12.85;84.44;98959.50;5133630;27;20051;-78
2022/06/21 00:58:14;;;;;;;2.25;1.10;;;;;;;12.74;85.10;98952.75;5064068;27;20045;-79
2022/06/21 01:00:53;;;;;;;1.92;1.30;;;;;;;12.88;86.31;98954.47;5029717;28;20054;-79
2022/06/21 01:03:25;;;;;;;1.50;0.90;;;;;;;12.75;86.18;98949.81;5029438;28;20053;-79
2022/06/21 01:05:54;;;;;;;2.72;0.88;;;;;;;12.50;85.74;98952.22;5029755;28;20053;-79
2022/06/21 01:08:25;;;;;;;2.13;0.82;;;;;;;12.32;87.80;98938.31;5029440;28;20504;-78
2022/06/21 01:10:58;;;;;;;1.10;1.00;;;;;;;12.42;87.57;98938.78;5029444;28;20061;-79
2022/06/21 01:13:28;;;;;;;2.40;1.10;;;;;;;12.27;89.09;98941.63;5029219;28;20045;-79
2022/06/21 01:15:56;;;;;;;3.10;1.17;;;;;;;12.35;89.22;98943.34;5028719;28;20311;-79
2022/06/21 01:18:26;;;;;;;0.90;0.90;;;;;;;12.24;89.45;98917.50;5029444;28;20053;-78
2022/06/21 01:20:56;;;;;;;3.17;1.17;;;;;;;12.34;89.90;98941.66;5029497;28;20045;-79
2022/06/21 01:23:36;;;;;;;0.87;0.87;;;;;;;12.01;90.48;98921.38;5029182;28;20064;-79
2022/06/21 01:26:18;;;;;;;2.13;1.08;;;;;;;11.97;92.72;98928.25;5029382;28;20060;-78
2022/06/21 01:28:48;;;;;;;1.50;1.23;;;;;;;12.04;92.63;98923.69;5029435;28;20050;-79
2022/06/21 01:31:14;;;;;;;1.35;0.93;;;;;;;11.91;94.01;98914.53;5029174;28;20106;-79
2022/06/21 01:33:42;;;;;;;1.55;1.00;;;;;;;11.56;94.55;98903.63;5029009;28;20390;-79
2022/06/21 01:36:13;;;;;;;1.90;1.08;;;;;;;11.67;96.33;98935.75;5029087;28;20064;-79
2022/06/21 01:38:43;;;;;;;1.70;1.15;;;;;;;11.68;95.87;98931.97;5032010;28;20049;-78
2022/06/21 01:41:16;;;;;;;2.10;0.90;;;;;;;11.75;96.44;98938.31;5032520;28;20045;-79
2022/06/21 01:43:47;;;;;;;1.52;1.17;;;;;;;11.66;96.95;98934.91;5032461;28;20402;-79
2022/06/21 01:46:18;;;;;;;1.77;1.63;;;;;;;11.67;95.54;98912.09;5032833;28;20056;-79
2022/06/21 01:48:48;;;;;;;3.38;1.15;;;;;;;11.66;95.86;98923.19;5032738;28;20049;-79
2022/06/21 01:51:20;;;;;;;1.98;1.20;;;;;;;11.54;95.97;98922.88;5032509;28;20507;-79
2022/06/21 01:53:47;;;;;;;1.17;1.00;;;;;;;11.26;97.02;98882.88;5032260;28;20052;-78
2022/06/21 01:56:21;;;;;;;2.25;1.20;;;;;;;11.30;97.64;98881.44;5032394;28;20061;-79
2022/06/21 01:58:53;;;;;;;2.30;1.52;;;;;;;11.35;96.96;98891.75;5124335;27;20506;-78
2022/06/21 02:01:24;;;;;;;1.58;1.10;;;;;;;11.28;97.39;98888.13;5136968;27;20062;-79
2022/06/21 02:03:56;;;;;;;3.25;1.55;;;;;;;11.15;97.87;98886.97;5136512;27;20407;-79
2022/06/21 02:06:27;;;;;;;1.35;1.25;;;;;;;11.09;99.59;98885.00;5137073;27;20448;-79
2022/06/21 02:08:57;;;;;;;7.53;1.08;;;;;;;11.18;98.34;98877.56;5136688;27;20498;-79
2022/06/21 02:11:30;;;;;;;1.63;1.20;;;;;;;11.10;98.61;98869.56;5136993;27;20059;-79
2022/06/21 02:16:51;;;;;;;2.28;1.20;;;;;;;11.16;98.81;98861.44;5136563;27;20121;-79
2022/06/21 02:19:27;;;;;;;1.20;1.08;;;;;;;10.86;100.00;98862.63;5136577;27;20043;-79
2022/06/21 02:21:54;;;;;;;5.13;1.63;;;;;;;10.83;100.00;98876.63;5136707;27;20047;-79
2022/06/21 02:24:23;;;;;;;1.42;1.27;;;;;;;10.76;100.00;98877.38;5136383;27;20054;-78
2022/06/21 02:26:51;;;;;;;1.52;1.23;;;;;;;10.73;100.00;98880.47;5136564;27;20051;-79
2022/06/21 02:29:19;;;;;;;3.25;1.30;;;;;;;10.60;100.00;98870.31;5136543;27;20054;-79
2022/06/21 02:31:46;;;;;;;3.90;1.58;;;;;;;10.94;100.00;98881.53;5136248;27;20043;-79
2022/06/21 02:34:18;;;;;;;2.47;1.38;;;;;;;10.89;100.00;98875.84;5136218;27;20055;-78
2022/06/21 02:36:49;;;;;;;4.75;1.80;;;;;;;10.80;100.00;98866.97;5136348;27;20134;-78
2022/06/21 02:39:20;;;;;;;1.83;1.25;;;;;;;10.83;100.00;98872.00;5136188;27;20324;-79
2022/06/21 02:41:50;;;;;;;4.18;1.00;;;;;;;10.77;100.00;98859.19;5136108;27;20055;-78
2022/06/21 02:44:24;;;;;;;1.98;1.25;;;;;;;10.86;100.00;98876.22;5135805;27;20054;-79
2022/06/21 02:46:54;;;;;;;1.52;1.30;;;;;;;10.76;100.00;98874.69;5136293;27;20051;-79
2022/06/21 02:49:24;;;;;;;2.88;1.30;;;;;;;10.87;100.00;98877.88;5135515;27;20488;-79
2022/06/21 02:51:55;;;;;;;1.67;1.27;;;;;;;10.78;100.00;98878.03;5135856;27;20050;-78
2022/06/21 02:54:25;;;;;;;4.25;1.38;;;;;;;10.68;100.00;98860.34;5135766;27;20379;-78
2022/06/21 02:56:58;;;;;;;1.17;0.95;;;;;;;10.59;100.00;98859.63;5130376;27;20251;-78
2022/06/21 02:59:27;;;;;;;4.60;1.30;;;;;;;10.62;100.00;98870.13;5031494;28;20076;-79
2022/06/21 03:01:57;;;;;;;3.22;1.58;;;;;;;10.57;100.00;98862.53;5031303;28;20049;-78
2022/06/21 03:04:29;;;;;;;3.45;1.35;;;;;;;10.45;100.00;98864.91;5031110;28;20049;-79
2022/06/21 03:06:55;;;;;;;1.88;1.23;;;;;;;10.52;100.00;98866.88;5031354;28;20049;-78
2022/06/21 03:09:24;;;;;;;1.20;1.10;;;;;;;10.57;100.00;98864.44;5031349;28;20050;-79
2022/06/21 03:11:54;;;;;;;2.30;1.25;;;;;;;10.64;100.00;98857.16;5031321;28;20053;-78
2022/06/21 03:14:22;;;;;;;;;;;;;;;10.61;100.00;98852.13;5031048;28;20049;-79
2022/06/21 03:16:52;;;;;;;4.13;1.60;;;;;;;10.27;100.00;98835.41;5031171;28;19960;-78
2022/06/21 03:19:24;;;;;;;2.97;1.45;;;;;;;10.21;100.00;98838.06;5031137;28;20060;-78
2022/06/21 03:21:50;;;;;;;4.40;1.38;;;;;;;9.83;100.00;98814.63;5031267;28;20408;-79
2022/06/21 03:24:20;;;;;;;2.25;1.20;;;;;;;10.12;100.00;98826.47;5030864;28;20049;-78
2022/06/21 03:27:01;;;;;;;2.55;1.42;;;;;;;10.10;100.00;98820.34;5031138;28;20046;-80
2022/06/21 03:29:29;;;;;;;1.88;1.20;;;;;;;10.21;100.00;98817.16;5031094;28;20046;-78
2022/06/21 03:32:02;;;;;;;2.20;1.40;;;;;;;10.16;100.00;98805.19;5030858;28;20049;-78
2022/06/21 03:34:29;;;;;;;1.98;1.42;;;;;;;10.15;100.00;98789.94;5031129;28;20131;-78
2022/06/21 03:36:58;;;;;;;1.92;1.30;;;;;;;10.26;100.00;98768.50;5029635;28;20081;-79
2022/06/21 03:42:09;;;;;;;2.20;1.65;;;;;;;10.56;100.00;98806.47;5030079;28;20057;-79
2022/06/21 03:44:40;;;;;;;2.42;1.65;;;;;;;10.77;100.00;98819.25;5030887;28;20055;-78
2022/06/21 03:47:14;;;;;;;3.13;1.40;;;;;;;10.86;100.00;98814.50;5030785;28;20076;-79
2022/06/21 03:49:46;;;;;;;4.65;2.10;;;;;;;10.90;100.00;98812.22;5030813;28;20432;-79
2022/06/21 03:52:41;;;;;;;3.47;1.60;;;;;;;10.77;100.00;98815.69;5030513;28;20054;-79
2022/06/21 03:55:14;;;;;;;2.22;1.60;;;;;;;10.71;100.00;98824.63;5030433;28;20128;-79
2022/06/21 03:57:46;;;;;;;2.47;2.05;;;;;;;10.94;100.00;98824.41;5067320;27;20050;-78
2022/06/21 04:00:14;;;;;;;3.15;1.70;;;;;;;10.99;100.00;98821.97;5133545;27;20047;-78
2022/06/21 04:02:48;;;;;;;2.80;1.27;;;;;;;10.70;100.00;98802.00;5134377;27;20051;-78
2022/06/21 04:05:19;;;;;;;1.52;1.40;;;;;;;10.79;100.00;98832.63;5134249;27;20047;-78
2022/06/21 04:07:54;;;;;;;2.28;1.73;;;;;;;10.69;100.00;98813.09;5134874;27;20048;-78
2022/06/21 04:10:25;;;;;;;2.28;1.40;;;;;;;10.86;100.00;98830.00;5133323;27;20047;-79
2022/06/21 04:12:55;;;;;;;5.72;1.88;;;;;;;10.93;100.00;98830.88;5134180;27;20047;-78
2022/06/21 04:15:30;;;;;;;2.67;1.85;;;;;;;11.04;100.00;98819.47;5133631;27;20058;-79
2022/06/21 04:18:04;;;;;;;3.50;1.70;;;;;;;11.37;100.00;98842.56;5134455;27;20410;-79
2022/06/21 04:20:38;;;;;;;1.58;1.38;;;;;;;11.30;100.00;98837.88;5134191;27;20047;-79
2022/06/21 04:23:12;;;;;;;2.05;1.80;;;;;;;11.31;100.00;98833.31;5133876;27;20049;-78
2022/06/21 04:25:46;;;;;;;2.05;1.45;;;;;;;11.28;100.00;98823.66;5134033;27;20047;-78
2022/06/21 04:28:16;;;;;;;5.50;1.75;;;;;;;11.43;100.00;98823.53;5134052;27;20051;-78
2022/06/21 04:30:48;;;;;;;4.38;1.85;;;;;;;11.53;100.00;98817.72;5134058;27;20055;-78
2022/06/21 04:33:21;;;;;;;4.60;1.73;;;;;;;11.74;100.00;98813.25;5133932;27;20161;-78
2022/06/21 04:35:52;;;;;;;1.20;1.10;;;;;;;11.84;100.00;98794.66;5133921;27;20499;-79
2022/06/21 04:38:26;;;;;;;2.95;1.40;;;;;;;12.08;98.08;98808.84;5134109;27;20399;-78
2022/06/21 04:40:58;;;;;;;1.45;1.15;;;;;;;12.34;98.30;98813.53;5133810;27;20054;-78
2022/06/21 04:43:29;;;;;;;4.28;1.80;;;;;;;12.47;97.95;98802.69;5133411;27;20409;-78
2022/06/21 04:45:58;;;;;;;1.42;1.27;;;;;;;12.68;95.39;98818.03;5133839;27;20051;-79
2022/06/21 04:48:35;;;;;;;8.45;1.88;;;;;;;12.81;96.37;98817.22;5133974;27;20490;-78
2022/06/21 04:51:07;;;;;;;1.40;1.30;;;;;;;13.07;95.12;98816.41;5133450;27;20478;-78
2022/06/21 04:53:41;;;;;;;5.07;2.47;;;;;;;13.23;93.43;98815.16;5133433;27;20043;-78
2022/06/21 04:56:14;;;;;;;1.60;1.30;;;;;;;13.54;90.61;98802.75;5133637;27;20057;-79
2022/06/21 04:58:41;;;;;;;2.75;1.60;;;;;;;14.10;87.79;98803.19;5058177;27;20056;-78
2022/06/21 05:03:49;;;;;;;2.13;1.40;;;;;;;15.39;76.54;98772.88;5029136;28;20509;-78
2022/06/21 05:06:16;;;;;;;4.85;1.20;;;;;;;16.18;73.25;98797.72;5029494;28;20049;-79
2022/06/21 05:08:43;;;;;;;3.17;1.55;;;;;;;16.56;71.98;98788.38;5029825;28;20053;-78
2022/06/21 05:11:13;;;;;;;2.10;1.40;;;;;;;16.86;67.33;98782.00;5029190;28;20390;-79
2022/06/21 05:13:42;;;;;;;5.77;1.33;;;;;;;17.11;65.42;98781.00;5029222;28;20079;-79
2022/06/21 05:16:16;;;;;;;3.33;1.05;;;;;;;17.17;65.59;98805.59;5028671;28;20061;-79
2022/06/21 05:18:46;;;;;;;4.88;1.27;;;;;;;17.08;64.15;98807.03;5029384;28;20412;-78
2022/06/21 05:21:22;;;;;;;5.00;1.33;;;;;;;16.84;62.48;98795.13;5029286;28;20057;-78
2022/06/21 05:23:48;;;;;;;5.50;1.23;;;;;;;16.89;61.70;98806.28;5029140;28;20060;-78
2022/06/21 05:26:24;;;;;;;9.77;1.70;;;;;;;16.73;63.51;98809.66;5029236;28;20060;-78
2022/06/21 05:28:56;;;;;;;4.43;1.58;;;;;;;16.80;63.62;98808.50;5029355;28;20061;-78
2022/06/21 05:31:25;;;;;;;3.70;1.48;;;;;;;17.01;60.78;98805.47;5029391;28;20509;-78
2022/06/21 05:33:57;;;;;;;3.80;1.50;;;;;;;17.19;62.08;98799.88;5029148;28;20053;-78
2022/06/21 05:36:31;;;;;;;1.42;1.30;;;;;;;17.56;60.81;98802.41;5029338;28;20049;-79
2022/06/21 05:39:01;;;;;;;2.72;1.02;;;;;;;17.97;57.38;98795.09;5029031;28;20053;-78
2022/06/21 05:41:31;;;;;;;2.63;1.10;;;;;;;18.11;54.93;98800.31;5029354;28;20045;-79
2022/06/21 05:44:00;;;;;;;5.82;1.45;;;;;;;18.27;55.85;98807.00;5028818;28;20056;-79
2022/06/21 05:46:29;;;;;;;3.33;1.27;;;;;;;18.33;54.60;98803.25;5029193;28;20069;-78
2022/06/21 05:48:58;;;;;;;4.90;1.15;;;;;;;18.55;54.95;98798.75;5028966;28;20064;-78
2022/06/21 05:51:29;;;;;;;5.23;1.33;;;;;;;19.00;53.52;98797.13;5029173;28;20050;-78
2022/06/21 05:54:01;;;;;;;7.75;1.60;;;;;;;19.05;53.13;98799.13;5028768;28;20052;-79
2022/06/21 05:56:29;;;;;;;5.68;1.40;;;;;;;19.27;51.09;98800.03;5029052;28;20052;-78
2022/06/21 05:59:01;;;;;;;2.30;1.70;;;;;;;19.51;52.13;98802.63;5111893;27;20491;-78
2022/06/21 06:01:33;;;;;;;4.38;1.33;;;;;;;19.72;49.55;98783.59;5133297;27;20115;-79
2022/06/21 06:04:07;;;;;;;3.17;1.25;;;;;;;19.82;50.56;98785.72;5132622;27;20494;-79
2022/06/21 06:06:36;;;;;;;5.55;1.45;;;;;;;20.12;49.69;98786.09;5132912;27;20058;-79
2022/06/21 06:09:07;;;;;;;6.75;1.50;;;;;;;20.46;49.37;98791.50;5132749;27;20051;-79
2022/06/21 06:12:00;;;;;;;1.98;1.00;;;;;;;20.43;48.30;98792.00;5133079;27;20054;-79
2022/06/21 06:14:32;;;;;;;2.53;1.27;;;;;;;20.54;48.57;98792.13;5132355;27;20054;-79
2022/06/21 06:17:00;;;;;;;2.83;1.23;;;;;;;20.71;47.51;98803.09;5132585;27;20055;-78
2022/06/21 06:19:34;;;;;;;1.40;0.93;;;;;;;20.55;48.22;98811.19;5132910;27;20043;-79
2022/06/21 06:22:16;;;;;;;3.40;1.10;;;;;;;20.57;46.86;98805.41;5132593;27;20410;-78
2022/06/21 06:24:51;;;;;;;6.57;1.42;;;;;;;20.74;46.58;98819.16;5135675;27;20051;-79
2022/06/21 06:27:32;;;;;;;3.08;1.10;;;;;;;20.37;46.92;98817.88;5136392;27;20051;-79
2022/06/21 06:30:03;;;;;;;7.60;1.55;;;;;;;20.25;48.18;98808.88;5136362;27;20047;-79
2022/06/21 06:32:35;;;;;;;3.35;1.38;;;;;;;20.37;47.88;98790.28;5136237;27;20407;-79
2022/06/21 06:35:02;;;;;;;3.70;1.20;;;;;;;20.36;47.64;98821.72;5136246;27;20043;-79
2022/06/21 06:37:36;;;;;;;6.85;1.70;;;;;;;20.37;48.00;98828.06;5136375;27;20051;-79
2022/06/21 06:40:05;;;;;;;3.13;1.58;;;;;;;20.68;46.85;98827.41;5136057;27;20043;-79
2022/06/21 06:42:36;;;;;;;7.10;1.15;;;;;;;20.44;49.60;98823.19;5136184;27;20444;-79
2022/06/21 06:45:12;;;;;;;2.40;1.20;;;;;;;20.21;47.58;98832.59;5136126;27;20051;-79
2022/06/21 06:47:41;;;;;;;3.53;1.23;;;;;;;20.02;47.08;98796.19;5136162;27;20051;-79
2022/06/21 06:50:16;;;;;;;2.50;1.23;;;;;;;19.76;47.76;98821.44;5135909;27;20047;-79
2022/06/21 06:52:50;;;;;;;2.55;1.15;;;;;;;20.03;49.24;98809.72;5135692;27;20054;-79
2022/06/21 06:55:24;;;;;;;3.50;1.65;;;;;;;20.18;47.98;98800.81;5136139;27;20559;-79
2022/06/21 06:57:54;;;;;;;6.35;1.33;;;;;;;20.22;46.13;98821.28;5102935;27;20493;-79
2022/06/21 07:00:26;;;;;;;4.53;1.25;;;;;;;20.43;46.56;98808.56;5031580;28;20077;-79
2022/06/21 07:02:59;;;;;;;8.73;1.48;;;;;;;20.71;45.62;98812.22;5031225;28;20053;-79
2022/06/21 07:05:32;;;;;;;6.03;1.35;;;;;;;20.99;45.34;98799.25;5031524;28;20471;-79
2022/06/21 07:08:09;;;;;;;7.13;1.05;;;;;;;21.02;44.67;98801.47;5031333;28;20140;-79
2022/06/21 07:10:36;;;;;;;3.22;1.30;;;;;;;21.46;44.18;98797.69;5031696;28;20050;-79
2022/06/21 07:13:03;;;;;;;6.30;1.65;;;;;;;21.52;43.29;98816.00;5030969;28;20056;-79
2022/06/21 07:15:34;;;;;;;4.47;1.58;;;;;;;21.70;43.24;98823.88;5030744;28;20413;-79
2022/06/21 07:18:01;;;;;;;1.58;1.00;;;;;;;22.18;42.73;98818.34;5031180;28;20056;-79
2022/06/21 07:20:38;;;;;;;2.75;1.38;;;;;;;22.23;43.24;98810.03;5031146;28;20045;-78
2022/06/21 07:23:13;;;;;;;8.15;1.45;;;;;;;22.68;41.20;98820.78;5030835;28;20064;-78
2022/06/21 07:25:44;;;;;;;7.78;1.45;;;;;;;22.69;41.84;98820.50;5031290;28;20081;-79
2022/06/21 07:28:15;;;;;;;6.30;1.85;;;;;;;22.80;41.01;98822.16;5031020;28;20056;-79
2022/06/21 07:30:46;;;;;;;4.78;1.25;;;;;;;22.68;40.27;98821.59;5031178;28;20049;-79
2022/06/21 07:33:18;;;;;;;2.88;1.20;;;;;;;23.00;40.89;98826.09;5030764;28;20215;-79
2022/06/21 07:35:49;;;;;;;14.75;1.50;;;;;;;22.35;40.73;98828.41;5031124;28;20420;-79
2022/06/21 07:38:23;;;;;;;6.95;1.20;;;;;;;22.32;41.90;98838.09;5031060;28;20060;-79
2022/06/21 07:40:54;;;;;;;9.15;1.25;;;;;;;23.07;41.48;98840.53;5030868;28;20041;-79
2022/06/21 07:43:28;;;;;;;4.85;1.52;;;;;;;23.62;39.50;98838.09;5031093;28;20057;-79
2022/06/21 07:45:57;;;;;;;2.90;1.48;;;;;;;23.42;38.50;98840.84;5030751;28;20061;-78
2022/06/21 07:48:28;;;;;;;11.03;1.37;;;;;;;23.43;39.28;98821.16;5031107;28;20053;-78
2022/06/21 07:50:59;;;;;;;9.00;1.30;;;;;;;23.15;42.35;98817.84;5030866;28;20057;-79
2022/06/21 07:53:33;;;;;;;3.88;1.40;;;;;;;22.93;40.84;98808.91;5030501;28;20055;-78
2022/06/21 07:56:06;;;;;;;1.60;1.13;;;;;;;23.01;41.30;98810.31;5030675;28;20064;-79
2022/06/21 07:58:38;;;;;;;4.05;1.50;;;;;;;22.39;42.23;98799.91;5090532;27;20054;-79
2022/06/21 08:06:51;;;;;;;4.93;1.23;;;;;;;22.92;43.24;98746.28;5134587;27;20142;-79
2022/06/21 08:09:27;;;;;;;2.67;1.17;;;;;;;22.62;42.27;98743.16;5134633;27;20406;-79
2022/06/21 08:12:00;;;;;;;9.60;1.33;;;;;;;22.30;43.52;98734.22;5134338;27;20039;-79
2022/06/21 08:14:29;;;;;;;3.45;1.33;;;;;;;22.40;43.74;98734.25;5133837;27;20054;-79
2022/06/21 08:17:00;;;;;;;3.10;1.20;;;;;;;22.05;44.60;98724.72;5134066;27;20414;-79
2022/06/21 08:19:36;;;;;;;2.50;1.20;;;;;;;22.21;44.89;98709.00;5134561;27;20058;-79
2022/06/21 08:22:07;;;;;;;2.25;1.20;;;;;;;22.56;43.66;98715.75;5133963;27;20058;-79
2022/06/21 08:24:41;;;;;;;3.65;1.15;;;;;;;22.53;44.15;98713.53;5134386;27;20528;-79
2022/06/21 08:27:18;;;;;;;2.85;1.17;;;;;;;22.34;44.13;98729.81;5134090;27;20571;-79
2022/06/21 08:29:51;;;;;;;6.47;1.63;;;;;;;21.97;43.73;98739.91;5134207;27;20503;-79
2022/06/21 08:32:28;;;;;;;5.30;1.23;;;;;;;22.13;43.21;98749.13;5133818;27;20375;-79
2022/06/21 08:34:59;;;;;;;2.58;1.25;;;;;;;22.70;41.41;98752.91;5133989;27;20039;-80
2022/06/21 08:37:39;;;;;;;4.68;1.38;;;;;;;22.97;42.08;98740.72;5134280;27;20142;-79
2022/06/21 08:40:25;;;;;;;3.17;1.60;;;;;;;22.84;41.82;98746.81;5133845;27;20054;-79
2022/06/21 08:43:36;;;;;;;3.13;1.50;;;;;;;22.27;43.47;98764.09;5133578;27;20050;-80
2022/06/21 08:46:36;;;;;;;4.35;1.40;;;;;;;22.44;44.53;98749.22;5133374;27;20058;-79
2022/06/21 08:49:34;;;;;;;2.70;1.27;;;;;;;22.73;45.32;98738.50;5108039;27;20078;-79
2022/06/21 08:52:20;;;;;;;7.63;1.70;;;;;;;23.12;42.58;98739.91;5128442;27;20051;-79
2022/06/21 08:54:58;;;;;;;5.32;1.60;;;;;;;22.95;42.08;98723.53;5133674;27;20043;-79
2022/06/21 08:57:36;;;;;;;16.13;1.98;;;;;;;23.58;43.81;98742.63;5126661;27;20051;-79
2022/06/21 09:00:09;;;;;;;6.05;1.30;;;;;;;23.72;42.01;98739.28;5029574;28;20048;-79
2022/06/21 09:02:48;;;;;;;6.53;1.52;;;;;;;23.97;40.49;98738.41;5029464;28;20079;-79
2022/06/21 09:05:35;;;;;;;4.13;1.00;;;;;;;23.81;41.14;98741.16;5029525;28;20504;-80
2022/06/21 09:08:21;;;;;;;3.53;1.20;;;;;;;23.58;40.61;98734.31;5029467;28;20280;-79
2022/06/21 09:11:03;;;;;;;6.10;1.30;;;;;;;23.95;39.61;98732.28;5029630;28;20049;-79
2022/06/21 09:13:51;;;;;;;8.70;1.33;;;;;;;23.63;40.00;98714.03;5029288;28;20053;-79
2022/06/21 09:16:24;;;;;;;3.28;1.40;;;;;;;24.13;40.24;98708.59;5028961;28;20073;-79
2022/06/21 09:19:18;;;;;;;6.88;1.30;;;;;;;24.06;40.84;98699.75;5029569;28;20416;-80
2022/06/21 09:21:51;;;;;;;5.03;1.73;;;;;;;24.10;40.94;98711.94;5029350;28;20056;-79
2022/06/21 09:24:32;;;;;;;4.82;1.80;;;;;;;24.42;38.97;98705.94;5029373;28;20053;-79
2022/06/21 09:27:05;;;;;;;1.50;0.98;;;;;;;24.70;38.85;98706.34;5029246;28;20046;-79
2022/06/21 09:29:41;;;;;;;3.38;1.30;;;;;;;24.76;38.70;98710.72;5029247;28;20050;-79
2022/06/21 09:32:20;;;;;;;7.20;1.20;;;;;;;24.77;38.97;98709.63;5028867;28;20094;-79
2022/06/21 09:35:09;;;;;;;4.22;1.50;;;;;;;24.96;37.66;98715.31;5029487;28;20046;-79
2022/06/21 09:37:50;;;;;;;5.43;1.45;;;;;;;25.18;38.96;98716.78;5029450;28;20464;-80
2022/06/21 09:40:23;;;;;;;8.40;1.55;;;;;;;25.09;36.84;98705.47;5028993;28;20412;-79
2022/06/21 09:42:58;;;;;;;4.78;1.40;;;;;;;25.42;37.38;98714.91;5029092;28;20075;-79
2022/06/21 09:45:32;;;;;;;3.55;1.05;;;;;;;25.82;37.76;98709.19;5029327;28;20074;-80
2022/06/21 09:48:10;;;;;;;7.55;1.17;;;;;;;25.43;37.24;98712.97;5029019;28;20488;-80
2022/06/21 09:50:47;;;;;;;5.15;1.20;;;;;;;25.00;37.33;98698.88;5029214;28;20053;-80
2022/06/21 09:53:21;;;;;;;5.90;1.00;;;;;;;24.95;36.28;98696.16;5028632;28;20053;-80
2022/06/21 09:55:57;;;;;;;3.60;1.10;;;;;;;25.59;38.86;98717.25;5029092;28;20069;-80
2022/06/21 09:58:29;;;;;;;4.10;1.17;;;;;;;25.41;37.52;98716.03;5076295;27;20089;-80
2022/06/21 10:01:04;;;;;;;3.90;1.88;;;;;;;25.57;36.91;98702.78;5136884;27;20039;-80
2022/06/21 10:03:39;;;;;;;4.07;1.40;;;;;;;25.82;38.90;98709.19;5136693;27;20130;-80
2022/06/21 10:06:12;;;;;;;3.30;1.20;;;;;;;25.89;38.06;98709.66;5136900;27;20506;-80
2022/06/21 10:08:53;;;;;;;4.97;1.50;;;;;;;25.73;36.19;98703.44;5136972;27;20052;-80
2022/06/21 10:11:30;;;;;;;4.85;1.10;;;;;;;26.00;36.84;98695.63;5136967;27;20051;-80
2022/06/21 10:14:20;;;;;;;6.47;1.55;;;;;;;26.38;36.91;98693.72;5135948;27;20066;-80
2022/06/21 10:17:09;;;;;;;4.97;1.45;;;;;;;26.25;35.05;98670.22;5136716;27;20051;-80
2022/06/21 10:19:45;;;;;;;6.97;1.25;;;;;;;26.44;35.86;98689.72;5136709;27;20414;-80
2022/06/21 10:22:31;;;;;;;4.18;1.58;;;;;;;26.10;37.04;98685.19;5136202;27;20047;-80
2022/06/21 10:25:22;;;;;;;3.33;1.20;;;;;;;26.24;36.49;98684.44;5136477;27;20047;-80
2022/06/21 10:28:26;;;;;;;1.88;1.42;;;;;;;26.38;36.55;98688.16;5136429;27;20062;-79
2022/06/21 10:31:10;;;;;;;5.57;1.15;;;;;;;25.99;37.20;98675.31;5136457;27;20156;-80
2022/06/21 10:34:09;;;;;;;5.03;1.40;;;;;;;26.09;37.78;98672.41;5136049;27;20138;-79
2022/06/21 10:36:54;;;;;;;3.80;1.17;;;;;;;26.28;37.97;98677.97;5133494;27;20051;-80
2022/06/21 10:39:45;;;;;;;2.45;1.35;;;;;;;25.92;37.37;98647.78;5136417;27;20066;-80
2022/06/21 10:45:32;;;;;;;3.92;1.48;;;;;;;26.28;37.97;98647.31;5136071;27;20054;-80
2022/06/21 10:48:35;;;;;;;2.33;1.20;;;;;;;26.03;37.85;98629.03;5123272;27;20047;-80
2022/06/21 10:51:12;;;;;;;8.50;1.65;;;;;;;26.34;37.78;98624.97;5098938;27;20054;-80
2022/06/21 10:54:04;;;;;;;7.00;1.17;;;;;;;26.61;37.54;98625.06;5135718;27;20058;-79
2022/06/21 11:02:35;;;;;;;4.60;1.25;;;;;;;26.26;37.54;98624.50;5030837;28;20401;-80
2022/06/21 11:05:06;;;;;;;8.02;1.48;;;;;;;26.74;36.84;98606.78;5031349;28;20049;-80
2022/06/21 11:07:41;;;;;;;4.80;1.50;;;;;;;26.78;37.88;98601.41;5031410;28;20045;-80
2022/06/21 11:10:13;;;;;;;6.97;1.70;;;;;;;27.00;37.74;98600.75;5031139;28;20072;-79
2022/06/21 11:12:56;;;;;;;8.88;2.78;;;;;;;26.97;37.26;98596.59;5030994;28;20488;-79
2022/06/21 11:15:34;;;;;;;7.22;1.40;;;;;;;27.24;36.23;98599.75;5030708;28;20057;-79
2022/06/21 11:18:13;;;;;;;5.75;1.33;;;;;;;27.42;36.80;98598.84;5031144;28;20136;-79
2022/06/21 11:20:48;;;;;;;9.80;1.50;;;;;;;27.43;37.26;98606.09;5031251;28;20053;-79
2022/06/21 11:23:27;;;;;;;3.80;1.20;;;;;;;27.61;36.42;98604.31;5030864;28;20302;-79
2022/06/21 11:26:00;;;;;;;5.37;1.80;;;;;;;27.49;35.92;98595.63;5031077;28;20049;-79
2022/06/21 11:28:41;;;;;;;3.63;1.38;;;;;;;27.67;34.98;98602.22;5031206;28;20056;-80
2022/06/21 11:31:18;;;;;;;4.18;1.48;;;;;;;27.43;36.97;98614.47;5030776;28;20136;-79
2022/06/21 11:33:55;;;;;;;5.25;1.63;;;;;;;27.61;36.78;98609.06;5030897;28;20055;-79
2022/06/21 11:36:30;;;;;;;6.57;1.73;;;;;;;27.51;35.58;98608.13;5031160;28;20248;-79
2022/06/21 11:39:16;;;;;;;7.60;1.70;;;;;;;27.39;37.17;98613.41;5030818;28;20110;-79
2022/06/21 11:42:08;;;;;;;5.20;1.60;;;;;;;27.67;37.21;98607.81;5030775;28;20473;-79
2022/06/21 11:45:04;;;;;;;3.88;1.50;;;;;;;27.31;36.39;98595.41;5031001;28;20056;-79
2022/06/21 11:47:45;;;;;;;3.60;1.45;;;;;;;27.31;37.61;98594.56;5030753;28;20049;-79
2022/06/21 11:50:19;;;;;;;2.35;1.92;;;;;;;26.89;37.36;98571.38;5030550;28;20493;-79
2022/06/21 11:53:23;;;;;;;4.53;1.73;;;;;;;26.88;37.86;98580.91;5030312;28;20056;-79
2022/06/21 11:55:56;;;;;;;5.05;1.60;;;;;;;26.72;38.99;98558.03;5030665;28;20045;-79
2022/06/21 11:58:30;;;;;;;9.15;2.00;;;;;;;26.88;40.22;98566.94;5069674;27;20051;-79
2022/06/21 12:01:09;;;;;;;5.60;2.10;;;;;;;26.87;39.81;98546.59;5134589;27;20063;-79
2022/06/21 12:03:51;;;;;;;5.63;1.73;;;;;;;26.86;39.32;98558.91;5134274;27;20058;-79
2022/06/21 12:06:29;;;;;;;17.13;2.22;;;;;;;26.71;39.98;98532.13;5134417;27;20061;-79
2022/06/21 12:09:03;;;;;;;6.68;1.75;;;;;;;26.74;40.35;98551.03;5134447;27;20051;-79
2022/06/21 12:11:48;;;;;;;3.97;1.80;;;;;;;26.89;39.75;98540.69;5134478;27;20043;-79
2022/06/21 12:14:27;;;;;;;6.20;1.77;;;;;;;27.17;39.54;98525.66;5133587;27;20055;-79
2022/06/21 12:17:01;;;;;;;3.95;1.85;;;;;;;27.46;41.12;98534.84;5134362;27;20047;-80
2022/06/21 12:19:34;;;;;;;3.88;1.65;;;;;;;27.78;38.00;98539.44;5134682;27;20070;-79
2022/06/21 12:22:10;;;;;;;2.58;1.73;;;;;;;28.06;40.15;98543.03;5133669;27;20051;-79
2022/06/21 12:24:38;;;;;;;10.73;1.63;;;;;;;27.83;37.85;98539.31;5134335;27;20054;-79
2022/06/21 12:27:11;;;;;;;10.35;2.05;;;;;;;28.09;38.59;98558.31;5133934;27;20202;-79